createdAt,value
2018-05-15T00:00:57.446Z,4.50
2018-05-15T00:01:57.432Z,4.80
2018-05-15T00:03:11.682Z,4.70
2018-05-15T00:03:57.434Z,5.10
2018-05-15T00:04:57.436Z,4.80
2018-05-15T00:05:57.534Z,4.90
2018-05-15T00:06:57.437Z,4.90
2018-05-15T00:08:02.793Z,4.60
2018-05-15T00:08:57.436Z,5.30
2018-05-15T00:09:57.426Z,4.40
2018-05-15T00:10:57.459Z,4.90
2018-05-15T00:11:57.434Z,5.20
2018-05-15T00:12:57.431Z,4.70
2018-05-15T00:13:57.591Z,4.80
2018-05-15T00:14:57.449Z,4.20
2018-05-15T00:15:57.435Z,4.40
2018-05-15T00:16:57.435Z,4.90
2018-05-15T00:17:57.432Z,4.90
2018-05-15T00:18:57.429Z,4.70
2018-05-15T00:19:57.471Z,4.50
2018-05-15T00:20:57.423Z,5.10
2018-05-15T00:21:57.445Z,5.00
2018-05-15T00:22:57.432Z,5.10
2018-05-15T00:23:57.432Z,4.60
2018-05-15T00:24:57.468Z,4.80
2018-05-15T00:25:57.428Z,4.80
2018-05-15T00:26:57.424Z,4.80
2018-05-15T00:27:57.425Z,4.90
2018-05-15T00:28:57.421Z,5.50
2018-05-15T00:29:57.477Z,4.90
2018-05-15T00:30:57.421Z,5.20
2018-05-15T00:31:57.432Z,5.50
2018-05-15T00:32:57.425Z,5.60
2018-05-15T00:33:57.426Z,5.20
2018-05-15T00:34:57.482Z,5.40
2018-05-15T00:35:57.421Z,5.30
2018-05-15T00:36:57.422Z,5.30
2018-05-15T00:37:57.422Z,5.10
2018-05-15T00:38:57.642Z,5.30
2018-05-15T00:39:57.464Z,5.30
2018-05-15T00:40:57.423Z,5.20
2018-05-15T00:41:57.415Z,5.50
2018-05-15T00:42:57.414Z,4.90
2018-05-15T00:43:57.415Z,5.40
2018-05-15T00:44:59.341Z,5.50
2018-05-15T00:45:57.419Z,5.40
2018-05-15T00:46:57.411Z,5.50
2018-05-15T00:47:57.415Z,5.00
2018-05-15T00:48:57.422Z,5.50
2018-05-15T00:49:57.415Z,5.60
2018-05-15T00:51:05.191Z,5.60
2018-05-15T00:51:57.408Z,5.20
2018-05-15T00:52:57.409Z,5.20
2018-05-15T00:53:58.292Z,5.30
2018-05-15T00:54:57.412Z,5.50
2018-05-15T00:55:57.455Z,5.30
2018-05-15T00:56:57.401Z,5.50
2018-05-15T00:57:57.404Z,5.30
2018-05-15T00:58:57.471Z,5.40
2018-05-15T00:59:57.400Z,5.70
2018-05-15T01:00:57.785Z,5.30
2018-05-15T01:01:57.405Z,5.10
2018-05-15T01:02:57.396Z,5.30
2018-05-15T01:03:57.404Z,5.40
2018-05-15T01:04:57.400Z,5.50
2018-05-15T01:05:57.417Z,5.70
2018-05-15T01:07:08.182Z,5.40
2018-05-15T01:07:58.334Z,5.50
2018-05-15T01:08:57.402Z,5.80
2018-05-15T01:09:57.417Z,5.70
2018-05-15T01:10:57.435Z,5.90
2018-05-15T01:11:57.391Z,5.90
2018-05-15T01:12:57.386Z,5.50
2018-05-15T01:13:57.386Z,5.60
2018-05-15T01:14:57.394Z,5.40
2018-05-15T01:15:57.422Z,5.70
2018-05-15T01:16:57.383Z,5.60
2018-05-15T01:17:57.384Z,5.60
2018-05-15T01:18:57.391Z,5.50
2018-05-15T01:19:57.412Z,5.60
2018-05-15T01:22:29.017Z,5.60
2018-05-15T01:23:28.977Z,5.80
2018-05-15T01:24:28.969Z,5.90
2018-05-15T01:25:34.136Z,5.50
2018-05-15T01:26:28.972Z,5.80
2018-05-15T01:27:28.982Z,5.60
2018-05-15T01:28:28.968Z,5.60
2018-05-15T01:29:28.964Z,5.40
2018-05-15T01:30:28.973Z,5.70
2018-05-15T01:31:29.436Z,5.20
2018-05-15T01:32:28.968Z,5.40
2018-05-15T01:33:28.969Z,5.50
2018-05-15T01:34:28.958Z,5.40
2018-05-15T01:35:29.107Z,5.60
2018-05-15T01:36:28.966Z,5.50
2018-05-15T01:37:28.968Z,5.50
2018-05-15T01:38:28.976Z,5.80
2018-05-15T01:39:28.966Z,5.70
2018-05-15T01:40:28.973Z,5.70
2018-05-15T01:41:30.638Z,5.60
2018-05-15T01:42:29.024Z,5.70
2018-05-15T01:43:28.950Z,5.60
2018-05-15T01:44:28.952Z,5.90
2018-05-15T01:45:29.147Z,6.20
2018-05-15T01:46:28.949Z,5.60
2018-05-15T01:47:28.945Z,5.90
2018-05-15T01:48:28.944Z,6.00
2018-05-15T01:49:28.952Z,5.80
2018-05-15T01:50:28.944Z,5.80
2018-05-15T01:51:29.028Z,5.60
2018-05-15T01:52:28.941Z,6.00
2018-05-15T01:53:28.944Z,5.70
2018-05-15T01:54:28.941Z,5.80
2018-05-15T01:55:28.959Z,5.60
2018-05-15T01:56:50.768Z,5.80
2018-05-15T01:57:28.936Z,5.70
2018-05-15T01:58:28.934Z,5.70
2018-05-15T01:59:28.933Z,5.40
2018-05-15T02:02:00.612Z,5.90
2018-05-15T02:03:00.608Z,5.80
2018-05-15T02:04:00.602Z,5.30
2018-05-15T02:05:00.599Z,5.60
2018-05-15T02:06:02.194Z,6.00
2018-05-15T02:07:00.599Z,5.80
2018-05-15T02:08:00.594Z,5.70
2018-05-15T02:09:00.599Z,6.10
2018-05-15T02:10:00.593Z,5.40
2018-05-15T02:12:53.240Z,6.30
2018-05-15T02:13:32.199Z,5.70
2018-05-15T02:14:32.199Z,6.20
2018-05-15T02:15:32.202Z,6.10
2018-05-15T02:16:50.347Z,6.10
2018-05-15T02:17:32.196Z,6.10
2018-05-15T02:18:32.192Z,6.00
2018-05-15T02:19:32.192Z,5.90
2018-05-15T02:20:32.193Z,6.00
2018-05-15T02:23:03.852Z,6.20
2018-05-15T02:24:04.196Z,6.10
2018-05-15T02:25:03.809Z,6.10
2018-05-15T02:26:04.445Z,6.20
2018-05-15T02:27:03.805Z,6.50
2018-05-15T02:28:03.805Z,6.00
2018-05-15T02:29:03.802Z,6.00
2018-05-15T02:30:03.802Z,5.90
2018-05-15T02:31:25.439Z,5.90
2018-05-15T02:32:03.796Z,6.00
2018-05-15T02:33:03.818Z,6.00
2018-05-15T02:34:03.799Z,5.70
2018-05-15T02:35:03.799Z,5.90
2018-05-15T02:36:03.943Z,5.90
2018-05-15T02:37:03.796Z,5.90
2018-05-15T02:38:03.792Z,6.10
2018-05-15T02:39:04.516Z,6.40
2018-05-15T02:40:03.789Z,6.20
2018-05-15T02:41:04.439Z,6.30
2018-05-15T02:42:03.789Z,5.80
2018-05-15T02:43:04.268Z,6.20
2018-05-15T02:44:03.856Z,6.10
2018-05-15T02:45:03.780Z,6.40
2018-05-15T02:49:07.109Z,7.00
2018-05-15T02:50:07.064Z,7.00
2018-05-15T02:51:21.178Z,6.70
2018-05-15T02:52:07.060Z,6.80
2018-05-15T02:53:07.058Z,7.20
2018-05-15T02:54:07.059Z,7.10
2018-05-15T02:55:07.062Z,6.90
2018-05-15T02:56:08.509Z,6.60
2018-05-15T02:57:07.056Z,6.90
2018-05-15T02:58:07.049Z,6.70
2018-05-15T02:59:07.069Z,6.90
2018-05-15T03:00:07.050Z,6.50
2018-05-15T03:02:44.302Z,6.40
2018-05-15T03:03:38.694Z,6.90
2018-05-15T03:04:38.692Z,7.10
2018-05-15T03:05:52.799Z,7.10
2018-05-15T03:06:39.347Z,6.80
2018-05-15T03:07:38.681Z,7.00
2018-05-15T03:08:38.687Z,7.20
2018-05-15T03:09:38.682Z,7.10
2018-05-15T03:10:38.700Z,6.60
2018-05-15T03:12:00.599Z,7.40
2018-05-15T03:12:38.675Z,6.90
2018-05-15T03:13:38.678Z,7.30
2018-05-15T03:14:38.682Z,7.20
2018-05-15T03:15:38.674Z,7.20
2018-05-15T03:17:13.799Z,7.10
2018-05-15T03:17:38.674Z,6.90
2018-05-15T03:18:39.576Z,7.80
2018-05-15T03:19:38.671Z,7.70
2018-05-15T03:20:38.664Z,7.20
2018-05-15T03:21:38.678Z,7.50
2018-05-15T03:22:46.476Z,7.40
2018-05-15T03:23:38.661Z,7.10
2018-05-15T03:24:38.766Z,6.80
2018-05-15T03:25:38.654Z,7.30
2018-05-15T03:26:38.812Z,7.60
2018-05-15T03:27:38.652Z,7.70
2018-05-15T03:28:38.651Z,7.10
2018-05-15T03:29:39.597Z,7.10
2018-05-15T03:30:38.645Z,7.30
2018-05-15T03:31:38.653Z,7.00
2018-05-15T03:32:38.683Z,7.00
2018-05-15T03:33:38.646Z,7.10
2018-05-15T03:34:38.641Z,7.50
2018-05-15T03:35:38.637Z,7.50
2018-05-15T03:36:38.634Z,7.40
2018-05-15T03:38:13.799Z,7.10
2018-05-15T03:38:38.659Z,7.80
2018-05-15T03:39:38.633Z,7.30
2018-05-15T03:40:38.630Z,7.60
2018-05-15T03:41:38.634Z,7.30
2018-05-15T03:42:38.673Z,7.90
2018-05-15T03:43:38.787Z,8.20
2018-05-15T03:44:38.623Z,7.90
2018-05-15T03:45:38.620Z,7.90
2018-05-15T03:46:38.623Z,7.80
2018-05-15T03:47:41.802Z,7.70
2018-05-15T03:48:38.672Z,7.70
2018-05-15T03:49:38.613Z,7.50
2018-05-15T03:50:38.615Z,7.10
2018-05-15T03:51:38.623Z,7.60
2018-05-15T03:52:38.775Z,7.70
2018-05-15T03:53:38.607Z,7.90
2018-05-15T03:54:38.611Z,8.00
2018-05-15T03:55:38.611Z,7.70
2018-05-15T03:56:38.602Z,7.80
2018-05-15T03:57:38.604Z,7.30
2018-05-15T03:58:38.658Z,7.50
2018-05-15T03:59:38.597Z,7.80
2018-05-15T04:00:38.596Z,7.20
2018-05-15T04:01:38.595Z,7.30
2018-05-15T04:02:41.799Z,7.30
2018-05-15T04:03:38.596Z,7.70
2018-05-15T04:04:38.592Z,7.30
2018-05-15T04:05:38.605Z,7.30
2018-05-15T04:06:38.984Z,7.40
2018-05-15T04:07:38.633Z,7.30
2018-05-15T04:08:38.637Z,7.70
2018-05-15T04:09:38.581Z,7.40
2018-05-15T04:10:38.583Z,7.20
2018-05-15T04:11:38.580Z,7.40
2018-05-15T04:19:09.380Z,7.40
2018-05-15T04:19:45.272Z,7.50
2018-05-15T04:20:45.270Z,7.90
2018-05-15T04:21:45.289Z,7.50
2018-05-15T04:23:24.379Z,7.50
2018-05-15T04:23:45.258Z,7.40
2018-05-15T04:24:45.269Z,7.60
2018-05-15T04:25:45.262Z,7.70
2018-05-15T04:26:45.268Z,8.00
2018-05-15T04:27:45.260Z,7.20
2018-05-15T04:31:51.749Z,7.60
2018-05-15T04:32:48.643Z,8.20
2018-05-15T04:41:56.297Z,8.10
2018-05-15T04:42:30.421Z,7.90
2018-05-15T04:43:32.836Z,8.70
2018-05-15T04:47:32.437Z,7.00
2018-05-15T04:48:32.757Z,7.20
2018-05-15T04:49:55.786Z,6.70
2018-05-15T04:50:30.850Z,6.80
2018-05-15T04:51:30.968Z,6.90
2018-05-15T04:52:31.945Z,6.90
2018-05-15T04:53:31.853Z,6.90
2018-05-15T04:54:31.023Z,6.70
2018-05-15T04:55:31.924Z,7.30
2018-05-15T04:56:31.426Z,6.90
2018-05-15T04:57:30.976Z,6.50
2018-05-15T04:58:30.984Z,6.60
2018-05-15T04:59:30.851Z,7.30
2018-05-15T05:00:30.901Z,6.80
2018-05-15T05:01:32.068Z,6.20
2018-05-15T05:02:30.850Z,6.70
2018-05-15T05:03:32.136Z,6.20
2018-05-15T05:04:44.987Z,6.70
2018-05-15T05:05:30.850Z,6.50
2018-05-15T05:06:30.849Z,6.20
2018-05-15T05:07:30.872Z,6.50
2018-05-15T05:08:32.989Z,6.50
2018-05-15T05:11:04.188Z,6.40
2018-05-15T05:12:02.561Z,6.40
2018-05-15T05:13:04.908Z,6.30
2018-05-15T05:14:02.447Z,6.90
2018-05-15T05:15:13.154Z,6.60
2018-05-15T05:16:04.188Z,6.10
2018-05-15T05:17:04.279Z,6.40
2018-05-15T05:18:03.576Z,6.70
2018-05-15T05:19:02.636Z,6.60
2018-05-15T05:20:02.563Z,6.60
2018-05-15T05:21:04.179Z,6.30
2018-05-15T05:22:05.165Z,6.70
2018-05-15T05:23:02.552Z,6.20
2018-05-15T05:24:03.665Z,6.60
2018-05-15T05:25:03.254Z,6.10
2018-05-15T05:26:02.589Z,6.30
2018-05-15T05:27:02.485Z,6.50
2018-05-15T05:28:02.469Z,6.50
2018-05-15T05:29:03.017Z,6.50
2018-05-15T05:30:02.473Z,6.50
2018-05-15T05:31:25.199Z,6.60
2018-05-15T05:32:02.465Z,7.20
2018-05-15T05:33:02.467Z,6.30
2018-05-15T05:34:02.473Z,6.50
2018-05-15T05:35:02.472Z,6.80
2018-05-15T05:36:20.615Z,6.60
2018-05-15T05:37:02.477Z,6.60
2018-05-15T05:38:02.477Z,6.40
2018-05-15T05:39:02.479Z,6.40
2018-05-15T05:40:02.570Z,6.60
2018-05-15T05:41:02.610Z,6.10
2018-05-15T05:42:02.481Z,6.20
2018-05-15T05:43:02.502Z,6.30
2018-05-15T05:44:02.486Z,6.00
2018-05-15T05:45:02.491Z,6.50
2018-05-15T05:46:03.250Z,6.10
2018-05-15T05:47:02.548Z,6.20
2018-05-15T05:48:02.491Z,6.20
2018-05-15T05:49:02.503Z,6.40
2018-05-15T05:50:02.525Z,6.30
2018-05-15T05:51:02.499Z,6.30
2018-05-15T05:52:04.272Z,6.50
2018-05-15T05:53:02.506Z,6.20
2018-05-15T05:54:02.503Z,6.40
2018-05-15T05:55:02.508Z,6.50
2018-05-15T05:56:02.517Z,6.70
2018-05-15T05:57:05.947Z,6.30
2018-05-15T05:58:02.519Z,6.80
2018-05-15T05:59:02.520Z,6.00
2018-05-15T06:00:02.523Z,6.50
2018-05-15T06:01:02.527Z,6.50
2018-05-15T06:02:10.108Z,6.20
2018-05-15T06:03:03.060Z,6.30
2018-05-15T06:04:02.551Z,6.50
2018-05-15T06:05:02.533Z,6.10
2018-05-15T06:06:02.536Z,6.50
2018-05-15T06:07:02.582Z,6.00
2018-05-15T06:08:03.068Z,6.40
2018-05-15T06:09:02.549Z,6.70
2018-05-15T06:10:02.545Z,6.30
2018-05-15T06:11:02.552Z,6.10
2018-05-15T06:12:02.679Z,6.10
2018-05-15T06:13:02.557Z,6.40
2018-05-15T06:14:02.558Z,6.50
2018-05-15T06:15:02.561Z,6.20
2018-05-15T06:16:02.562Z,6.20
2018-05-15T06:17:02.572Z,6.10
2018-05-15T06:18:03.118Z,6.40
2018-05-15T06:19:02.571Z,6.40
2018-05-15T06:20:02.573Z,6.40
2018-05-15T06:21:02.639Z,6.50
2018-05-15T06:22:03.126Z,6.20
2018-05-15T06:23:02.583Z,6.70
2018-05-15T06:24:02.584Z,6.00
2018-05-15T06:25:02.590Z,6.20
2018-05-15T06:26:02.591Z,6.20
2018-05-15T06:27:02.593Z,6.50
2018-05-15T06:28:04.787Z,6.30
2018-05-15T06:29:02.605Z,6.30
2018-05-15T06:30:02.604Z,6.80
2018-05-15T06:31:02.608Z,6.70
2018-05-15T06:32:02.625Z,6.40
2018-05-15T06:33:17.309Z,5.90
2018-05-15T06:34:02.620Z,6.20
2018-05-15T06:35:02.632Z,6.60
2018-05-15T06:36:02.629Z,6.30
2018-05-15T06:37:02.638Z,6.50
2018-05-15T06:38:10.609Z,6.00
2018-05-15T06:39:02.650Z,6.00
2018-05-15T06:40:02.645Z,6.00
2018-05-15T06:41:02.649Z,6.00
2018-05-15T06:42:02.655Z,6.60
2018-05-15T06:43:02.838Z,6.40
2018-05-15T06:44:02.658Z,6.40
2018-05-15T06:45:02.664Z,6.50
2018-05-15T06:46:02.675Z,6.40
2018-05-15T06:47:02.671Z,6.10
2018-05-15T06:48:02.679Z,6.20
2018-05-15T06:49:04.616Z,6.80
2018-05-15T06:50:02.717Z,5.80
2018-05-15T06:51:02.689Z,6.40
2018-05-15T06:52:02.690Z,6.50
2018-05-15T06:53:02.789Z,6.50
2018-05-15T06:54:03.672Z,6.40
2018-05-15T06:55:02.701Z,6.50
2018-05-15T06:56:02.717Z,6.30
2018-05-15T06:57:02.710Z,6.30
2018-05-15T06:58:04.631Z,6.30
2018-05-15T06:59:02.722Z,6.90
2018-05-15T07:00:02.729Z,6.80
2018-05-15T07:01:02.729Z,6.50
2018-05-15T07:02:02.732Z,6.90
2018-05-15T07:03:02.780Z,6.30
2018-05-15T07:04:02.759Z,6.20
2018-05-15T07:05:02.745Z,6.50
2018-05-15T07:06:02.751Z,6.10
2018-05-15T07:07:02.757Z,6.30
2018-05-15T07:08:06.313Z,6.40
2018-05-15T07:09:02.767Z,6.50
2018-05-15T07:10:02.774Z,6.00
2018-05-15T07:11:02.780Z,6.30
2018-05-15T07:12:02.784Z,6.00
2018-05-15T07:14:34.515Z,6.40
2018-05-15T07:15:34.455Z,6.30
2018-05-15T07:16:34.459Z,6.50
2018-05-15T07:17:34.524Z,5.90
2018-05-15T07:18:34.462Z,6.50
2018-05-15T07:19:34.536Z,6.30
2018-05-15T07:20:34.475Z,6.00
2018-05-15T07:21:34.477Z,6.40
2018-05-15T07:22:37.543Z,5.70
2018-05-15T07:23:34.712Z,6.10
2018-05-15T07:24:34.496Z,6.00
2018-05-15T07:25:35.369Z,6.00
2018-05-15T07:26:34.525Z,6.40
2018-05-15T07:27:34.509Z,6.70
2018-05-15T07:28:35.060Z,6.30
2018-05-15T07:29:34.520Z,6.60
2018-05-15T07:30:34.533Z,6.50
2018-05-15T07:31:34.533Z,6.20
2018-05-15T07:32:34.538Z,6.50
2018-05-15T07:33:45.593Z,6.40
2018-05-15T07:34:35.208Z,6.20
2018-05-15T07:35:34.550Z,6.00
2018-05-15T07:36:34.558Z,6.70
2018-05-15T07:37:34.573Z,6.30
2018-05-15T07:38:49.036Z,6.80
2018-05-15T07:39:34.582Z,6.30
2018-05-15T07:40:34.582Z,6.20
2018-05-15T07:41:34.587Z,6.30
2018-05-15T07:42:34.596Z,6.60
2018-05-15T07:43:34.603Z,6.20
2018-05-15T07:44:49.301Z,6.70
2018-05-15T07:45:34.607Z,6.20
2018-05-15T07:46:34.621Z,6.40
2018-05-15T07:47:34.628Z,5.80
2018-05-15T07:48:45.555Z,6.20
2018-05-15T07:49:34.628Z,5.80
2018-05-15T07:50:34.636Z,6.30
2018-05-15T07:51:34.644Z,6.00
2018-05-15T07:52:34.643Z,5.70
2018-05-15T07:53:34.738Z,6.00
2018-05-15T07:54:40.119Z,5.90
2018-05-15T07:55:34.660Z,6.20
2018-05-15T07:56:34.669Z,6.40
2018-05-15T07:57:34.668Z,6.00
2018-05-15T07:58:34.673Z,6.50
2018-05-15T07:59:40.050Z,6.40
2018-05-15T08:00:34.684Z,6.10
2018-05-15T08:01:34.994Z,6.70
2018-05-15T08:02:34.704Z,6.60
2018-05-15T08:03:34.695Z,6.00
2018-05-15T08:04:34.750Z,6.30
2018-05-15T08:05:34.705Z,6.50
2018-05-15T08:06:34.710Z,6.10
2018-05-15T08:07:36.028Z,6.20
2018-05-15T08:08:34.732Z,6.40
2018-05-15T08:09:34.728Z,6.40
2018-05-15T08:10:34.771Z,6.30
2018-05-15T08:11:34.744Z,6.10
2018-05-15T08:12:34.744Z,6.40
2018-05-15T08:13:34.736Z,6.40
2018-05-15T08:14:34.754Z,6.30
2018-05-15T08:15:38.107Z,6.20
2018-05-15T08:16:34.750Z,6.30
2018-05-15T08:17:34.751Z,6.00
2018-05-15T08:18:34.757Z,6.10
2018-05-15T08:19:45.556Z,6.00
2018-05-15T08:20:34.770Z,5.90
2018-05-15T08:21:34.776Z,6.10
2018-05-15T08:22:35.220Z,6.20
2018-05-15T08:23:34.835Z,5.90
2018-05-15T08:24:34.794Z,5.80
2018-05-15T08:25:34.801Z,5.80
2018-05-15T08:26:34.810Z,5.90
2018-05-15T08:27:34.813Z,6.00
2018-05-15T08:31:46.140Z,5.60
2018-05-15T08:32:38.488Z,5.30
2018-05-15T08:35:47.242Z,5.50
2018-05-15T08:36:10.139Z,6.00
2018-05-15T08:37:10.144Z,5.90
2018-05-15T08:38:10.147Z,5.50
2018-05-15T08:39:31.765Z,5.70
2018-05-15T08:40:10.156Z,5.30
2018-05-15T08:41:10.162Z,5.50
2018-05-15T08:42:10.187Z,5.40
2018-05-15T08:43:10.180Z,5.50
2018-05-15T08:44:10.184Z,5.20
2018-05-15T08:45:10.316Z,5.80
2018-05-15T08:46:10.201Z,5.30
2018-05-15T08:47:10.196Z,5.50
2018-05-15T08:48:10.209Z,5.20
2018-05-15T08:49:10.212Z,5.60
2018-05-15T08:50:28.748Z,5.40
2018-05-15T08:51:10.228Z,5.50
2018-05-15T08:52:10.233Z,4.90
2018-05-15T08:53:10.256Z,4.80
2018-05-15T08:54:10.245Z,5.40
2018-05-15T08:55:15.760Z,5.50
2018-05-15T08:56:10.262Z,5.20
2018-05-15T08:57:10.267Z,5.30
2018-05-15T08:58:10.357Z,5.30
2018-05-15T08:59:10.343Z,5.10
2018-05-15T09:00:33.658Z,5.50
2018-05-15T09:01:10.374Z,5.10
2018-05-15T09:02:10.402Z,5.50
2018-05-15T09:03:10.447Z,5.30
2018-05-15T09:04:10.363Z,5.20
2018-05-15T09:05:12.258Z,5.00
2018-05-15T09:06:10.406Z,4.90
2018-05-15T09:07:10.364Z,4.70
2018-05-15T09:08:10.584Z,4.60
2018-05-15T09:09:10.465Z,5.30
2018-05-15T09:10:11.231Z,5.20
2018-05-15T09:11:10.878Z,5.10
2018-05-15T09:12:10.383Z,5.20
2018-05-15T09:13:10.391Z,4.80
2018-05-15T09:14:10.404Z,4.90
2018-05-15T09:15:10.495Z,4.40
2018-05-15T09:16:15.753Z,4.50
2018-05-15T09:17:10.572Z,4.90
2018-05-15T09:18:10.446Z,4.30
2018-05-15T09:19:10.454Z,4.40
2018-05-15T09:20:12.248Z,4.70
2018-05-15T09:21:10.472Z,4.40
2018-05-15T09:22:11.295Z,4.50
2018-05-15T09:23:10.474Z,4.50
2018-05-15T09:24:10.484Z,4.60
2018-05-15T09:25:42.256Z,4.40
2018-05-15T09:26:10.494Z,4.80
2018-05-15T09:27:10.921Z,4.60
2018-05-15T09:28:10.758Z,4.50
2018-05-15T09:29:10.605Z,4.10
2018-05-15T09:30:11.332Z,4.30
2018-05-15T09:31:10.534Z,4.00
2018-05-15T09:32:10.544Z,4.10
2018-05-15T09:33:10.525Z,4.10
2018-05-15T09:34:10.547Z,4.40
2018-05-15T09:35:11.261Z,4.10
2018-05-15T09:36:12.251Z,4.10
2018-05-15T09:37:10.669Z,4.00
2018-05-15T09:38:10.572Z,4.20
2018-05-15T09:39:10.580Z,4.40
2018-05-15T09:40:12.255Z,4.40
2018-05-15T09:41:11.016Z,4.50
2018-05-15T09:42:10.675Z,4.30
2018-05-15T09:43:10.613Z,4.80
2018-05-15T09:44:10.614Z,4.80
2018-05-15T09:45:21.262Z,5.70
2018-05-15T09:46:10.699Z,4.70
2018-05-15T09:47:11.695Z,5.10
2018-05-15T09:48:12.135Z,4.80
2018-05-15T09:49:10.650Z,4.80
2018-05-15T09:50:10.652Z,4.70
2018-05-15T09:52:47.918Z,4.70
2018-05-15T09:53:42.339Z,4.60
2018-05-15T09:54:42.338Z,4.80
2018-05-15T09:56:04.401Z,4.70
2018-05-15T09:56:42.473Z,5.30
2018-05-15T09:57:42.368Z,4.20
2018-05-15T09:58:43.296Z,4.40
2018-05-15T09:59:42.387Z,4.30
2018-05-15T10:00:42.395Z,4.00
2018-05-15T10:02:04.434Z,4.50
2018-05-15T10:02:42.423Z,4.10
2018-05-15T10:03:42.438Z,4.20
2018-05-15T10:04:42.441Z,3.60
2018-05-15T10:05:42.457Z,4.00
2018-05-15T10:06:42.618Z,3.80
2018-05-15T10:07:43.180Z,3.40
2018-05-15T10:08:42.502Z,3.80
2018-05-15T10:09:42.523Z,3.80
2018-05-15T10:10:42.520Z,3.80
2018-05-15T10:11:42.591Z,3.50
2018-05-15T10:12:42.721Z,4.00
2018-05-15T10:13:42.581Z,3.90
2018-05-15T10:14:42.580Z,4.30
2018-05-15T10:15:42.600Z,4.20
2018-05-15T10:16:42.610Z,4.20
2018-05-15T10:17:42.795Z,3.80
2018-05-15T10:18:42.635Z,4.20
2018-05-15T10:19:42.646Z,4.40
2018-05-15T10:20:42.654Z,3.90
2018-05-15T10:21:42.662Z,4.20
2018-05-15T10:22:42.680Z,4.20
2018-05-15T10:24:11.432Z,4.30
2018-05-15T10:24:42.715Z,4.10
2018-05-15T10:25:42.708Z,4.40
2018-05-15T10:26:42.720Z,4.00
2018-05-15T10:27:42.731Z,4.20
2018-05-15T10:28:50.435Z,4.20
2018-05-15T10:29:42.754Z,4.10
2018-05-15T10:30:42.762Z,4.20
2018-05-15T10:31:42.773Z,4.20
2018-05-15T10:32:42.906Z,4.60
2018-05-15T10:33:42.824Z,4.20
2018-05-15T10:34:42.796Z,4.00
2018-05-15T10:35:42.808Z,3.90
2018-05-15T10:36:42.818Z,4.10
2018-05-15T10:37:42.825Z,4.00
2018-05-15T10:38:42.901Z,4.00
2018-05-15T10:39:42.845Z,3.50
2018-05-15T10:40:42.852Z,4.50
2018-05-15T10:41:42.862Z,4.40
2018-05-15T10:42:42.897Z,4.00
2018-05-15T10:43:42.934Z,3.90
2018-05-15T10:44:42.902Z,3.80
2018-05-15T10:45:42.910Z,3.70
2018-05-15T10:46:42.945Z,3.80
2018-05-15T10:47:42.931Z,4.00
2018-05-15T10:48:43.010Z,3.80
2018-05-15T10:49:42.974Z,3.90
2018-05-15T10:50:42.985Z,3.80
2018-05-15T10:51:42.977Z,3.60
2018-05-15T10:52:43.143Z,3.40
2018-05-15T10:53:43.049Z,3.40
2018-05-15T10:54:43.010Z,3.30
2018-05-15T10:55:43.028Z,3.60
2018-05-15T10:56:43.036Z,3.70
2018-05-15T10:57:43.051Z,4.00
2018-05-15T10:58:46.437Z,3.90
2018-05-15T10:59:43.100Z,4.00
2018-05-15T11:00:43.072Z,3.90
2018-05-15T11:01:43.713Z,3.80
2018-05-15T11:02:43.100Z,3.90
2018-05-15T11:03:43.260Z,3.70
2018-05-15T11:04:43.127Z,3.90
2018-05-15T11:05:43.125Z,3.60
2018-05-15T11:06:43.141Z,3.70
2018-05-15T11:07:43.146Z,3.70
2018-05-15T11:08:43.163Z,3.50
2018-05-15T11:09:43.465Z,3.80
2018-05-15T11:10:43.182Z,3.60
2018-05-15T11:11:43.186Z,3.60
2018-05-15T11:12:43.325Z,3.60
2018-05-15T11:13:43.258Z,3.60
2018-05-15T11:14:43.222Z,3.80
2018-05-15T11:15:43.235Z,4.20
2018-05-15T11:16:43.242Z,4.00
2018-05-15T11:17:43.255Z,3.80
2018-05-15T11:18:43.310Z,3.60
2018-05-15T11:19:43.271Z,3.70
2018-05-15T11:20:43.292Z,4.10
2018-05-15T11:21:43.300Z,4.00
2018-05-15T11:22:43.324Z,4.20
2018-05-15T11:23:57.535Z,3.80
2018-05-15T11:24:43.329Z,3.90
2018-05-15T11:25:43.328Z,3.80
2018-05-15T11:26:43.367Z,4.00
2018-05-15T11:27:43.350Z,4.00
2018-05-15T11:28:43.359Z,4.30
2018-05-15T11:29:43.445Z,4.20
2018-05-15T11:30:43.374Z,4.00
2018-05-15T11:31:43.381Z,3.40
2018-05-15T11:32:43.390Z,4.70
2018-05-15T11:33:43.609Z,4.60
2018-05-15T11:34:43.951Z,4.60
2018-05-15T11:35:43.435Z,4.30
2018-05-15T11:36:43.416Z,4.00
2018-05-15T11:37:43.423Z,4.20
2018-05-15T11:38:43.423Z,4.20
2018-05-15T11:39:43.435Z,4.10
2018-05-15T11:40:43.485Z,4.20
2018-05-15T11:41:43.528Z,4.60
2018-05-15T11:42:43.450Z,4.80
2018-05-15T11:43:43.459Z,4.60
2018-05-15T11:44:43.470Z,4.80
2018-05-15T11:45:43.508Z,5.40
2018-05-15T11:46:43.472Z,5.30
2018-05-15T11:47:43.729Z,5.40
2018-05-15T11:48:43.902Z,5.10
2018-05-15T11:49:44.184Z,5.40
2018-05-15T11:50:45.660Z,5.40
2018-05-15T11:51:44.268Z,5.80
2018-05-15T11:52:44.730Z,5.50
2018-05-15T11:53:43.515Z,5.60
2018-05-15T11:54:43.585Z,5.00
2018-05-15T11:55:43.515Z,6.00
2018-05-15T11:56:43.522Z,5.30
2018-05-15T11:57:43.526Z,5.30
2018-05-15T11:58:43.530Z,5.50
2018-05-15T11:59:43.590Z,5.80
2018-05-15T12:00:43.586Z,5.90
2018-05-15T12:01:43.538Z,5.60
2018-05-15T12:02:43.584Z,5.40
2018-05-15T12:03:43.564Z,5.20
2018-05-15T12:04:43.556Z,5.80
2018-05-15T12:06:04.964Z,4.60
2018-05-15T12:06:43.567Z,4.40
2018-05-15T12:07:43.570Z,4.50
2018-05-15T12:08:43.580Z,4.30
2018-05-15T12:09:43.589Z,4.50
2018-05-15T12:10:54.465Z,4.30
2018-05-15T12:11:43.604Z,3.80
2018-05-15T12:12:43.616Z,3.70
2018-05-15T12:13:43.624Z,3.80
2018-05-15T12:14:43.632Z,3.90
2018-05-15T12:15:44.350Z,3.90
2018-05-15T12:16:43.727Z,3.90
2018-05-15T12:17:43.686Z,4.40
2018-05-15T12:18:46.410Z,4.20
2018-05-15T12:19:58.452Z,4.20
2018-05-15T12:21:05.473Z,4.10
2018-05-15T12:21:43.699Z,4.10
2018-05-15T12:22:44.434Z,4.40
2018-05-15T12:23:43.777Z,4.50
2018-05-15T12:24:43.743Z,4.20
2018-05-15T12:25:44.766Z,4.40
2018-05-15T12:26:43.833Z,4.20
2018-05-15T12:27:43.857Z,4.60
2018-05-15T12:28:43.792Z,4.60
2018-05-15T12:29:43.801Z,4.40
2018-05-15T12:30:43.854Z,4.20
2018-05-15T12:32:04.836Z,4.50
2018-05-15T12:32:44.494Z,4.40
2018-05-15T12:33:44.420Z,4.40
2018-05-15T12:34:43.957Z,4.80
2018-05-15T12:35:44.082Z,4.00
2018-05-15T12:36:56.861Z,4.40
2018-05-15T12:37:45.453Z,4.40
2018-05-15T12:38:43.892Z,4.10
2018-05-15T12:39:48.436Z,4.70
2018-05-15T12:40:44.018Z,4.50
2018-05-15T12:41:45.007Z,4.40
2018-05-15T12:42:43.979Z,4.20
2018-05-15T12:43:44.932Z,4.70
2018-05-15T12:45:01.943Z,4.30
2018-05-15T12:45:44.972Z,4.10
2018-05-15T12:46:44.106Z,4.40
2018-05-15T12:47:51.012Z,4.60
2018-05-15T12:48:44.079Z,4.30
2018-05-15T12:49:44.875Z,4.20
2018-05-15T12:50:54.975Z,4.30
2018-05-15T12:51:44.045Z,4.40
2018-05-15T12:52:44.078Z,4.40
2018-05-15T12:53:44.070Z,4.20
2018-05-15T12:54:44.140Z,4.30
2018-05-15T12:55:44.164Z,4.80
2018-05-15T12:56:44.116Z,4.20
2018-05-15T12:57:44.938Z,4.40
2018-05-15T12:58:44.159Z,4.50
2018-05-15T12:59:49.062Z,4.20
2018-05-15T13:00:44.473Z,4.40
2018-05-15T13:02:05.195Z,4.40
2018-05-15T13:02:44.239Z,4.00
2018-05-15T13:03:44.220Z,4.50
2018-05-15T13:04:44.247Z,4.30
2018-05-15T13:05:44.314Z,4.60
2018-05-15T13:06:44.304Z,4.70
2018-05-15T13:07:44.287Z,4.90
2018-05-15T13:08:45.060Z,4.30
2018-05-15T13:09:44.446Z,4.60
2018-05-15T13:10:44.571Z,4.50
2018-05-15T13:11:44.315Z,4.20
2018-05-15T13:12:44.336Z,4.10
2018-05-15T13:13:46.967Z,4.50
2018-05-15T13:14:44.363Z,4.30
2018-05-15T13:15:54.017Z,4.20
2018-05-15T13:16:44.392Z,4.50
2018-05-15T13:17:46.364Z,4.40
2018-05-15T13:18:45.674Z,4.10
2018-05-15T13:19:51.065Z,4.30
2018-05-15T13:20:45.517Z,4.60
2018-05-15T13:21:47.482Z,5.00
2018-05-15T13:22:45.440Z,4.60
2018-05-15T13:23:44.459Z,4.00
2018-05-15T13:24:45.119Z,3.10
2018-05-15T13:25:57.787Z,2.80
2018-05-15T13:26:44.491Z,2.80
2018-05-15T13:28:16.291Z,2.60
2018-05-15T13:28:44.518Z,2.70
2018-05-15T13:29:46.486Z,2.70
2018-05-15T13:30:44.532Z,2.70
2018-05-15T13:31:55.451Z,2.80
2018-05-15T13:32:49.430Z,2.70
2018-05-15T13:34:00.957Z,3.00
2018-05-15T13:34:52.474Z,3.10
2018-05-15T13:35:50.289Z,3.10
2018-05-15T13:36:46.806Z,3.20
2018-05-15T13:37:45.414Z,3.70
2018-05-15T13:38:44.598Z,3.30
2018-05-15T13:39:46.326Z,3.30
2018-05-15T13:41:05.625Z,3.20
2018-05-15T13:42:05.613Z,3.60
2018-05-15T13:42:45.445Z,3.40
2018-05-15T13:43:44.634Z,3.50
2018-05-15T13:44:46.047Z,3.40
2018-05-15T13:45:47.508Z,3.50
2018-05-15T13:46:45.427Z,3.50
2018-05-15T13:47:44.728Z,3.40
2018-05-15T13:48:44.753Z,3.90
2018-05-15T13:49:45.484Z,3.70
2018-05-15T13:50:44.725Z,3.60
2018-05-15T13:51:44.663Z,4.00
2018-05-15T13:52:44.713Z,4.20
2018-05-15T13:53:48.293Z,3.80
2018-05-15T13:54:46.439Z,4.00
2018-05-15T13:55:44.781Z,4.10
2018-05-15T13:56:46.442Z,4.10
2018-05-15T13:57:52.381Z,3.90
2018-05-15T13:59:00.977Z,4.20